createdAt,value
2018-12-15T00:00:38.917Z,0.2
2018-12-15T00:01:41.234Z,0.2
2018-12-15T00:02:43.266Z,0.2
2018-12-15T00:03:45.343Z,0.2
2018-12-15T00:04:47.661Z,0.2
2018-12-15T00:05:49.683Z,0.1
2018-12-15T00:06:51.698Z,0.2
2018-12-15T00:07:53.717Z,0.1
2018-12-15T00:08:55.756Z,0.1
2018-12-15T00:09:57.777Z,0.1
2018-12-15T00:11:00.081Z,0.1
2018-12-15T00:12:02.107Z,0.1
2018-12-15T00:13:04.124Z,0.1
2018-12-15T00:14:06.153Z,0.1
2018-12-15T00:15:08.462Z,0.1
2018-12-15T00:16:10.476Z,0.1
2018-12-15T00:17:12.507Z,0.1
2018-12-15T00:18:14.534Z,0.1
2018-12-15T00:19:16.554Z,0.1
2018-12-15T00:20:18.603Z,0.1
2018-12-15T00:21:20.902Z,0.1
2018-12-15T00:22:22.920Z,0.1
2018-12-15T00:23:25.228Z,0.1
2018-12-15T00:24:27.271Z,0.1
2018-12-15T00:25:29.281Z,0.1
2018-12-15T00:26:31.873Z,0.2
2018-12-15T00:27:33.891Z,0.1
2018-12-15T00:28:36.313Z,0.1
2018-12-15T00:29:38.600Z,0.1
2018-12-15T00:30:40.915Z,0.1
2018-12-15T00:31:42.937Z,0.1
2018-12-15T00:32:44.986Z,0.1
2018-12-15T00:33:46.995Z,0.1
2018-12-15T00:34:49.019Z,0.1
2018-12-15T00:35:51.054Z,0.1
2018-12-15T00:36:53.074Z,0.1
2018-12-15T00:37:55.107Z,0.1
2018-12-15T00:38:57.135Z,0
2018-12-15T00:39:59.144Z,0
2018-12-15T00:41:01.169Z,0.1
2018-12-15T00:42:03.199Z,0.1
2018-12-15T00:43:05.224Z,0.1
2018-12-15T00:44:07.913Z,0
2018-12-15T00:45:11.540Z,0
2018-12-15T00:46:15.002Z,0
2018-12-15T00:47:17.031Z,0
2018-12-15T00:48:20.901Z,0.1
2018-12-15T00:49:23.605Z,0.1
2018-12-15T00:50:25.634Z,0.1
2018-12-15T00:51:28.046Z,0.1
2018-12-15T00:52:35.357Z,0.1
2018-12-15T00:53:39.553Z,0.1
2018-12-15T00:54:41.571Z,0.1
2018-12-15T00:55:43.590Z,0.1
2018-12-15T00:56:45.607Z,0
2018-12-15T00:57:47.653Z,0
2018-12-15T00:58:49.676Z,0
2018-12-15T00:59:51.701Z,0
2018-12-15T01:00:53.732Z,0
2018-12-15T01:01:55.747Z,0
2018-12-15T01:02:57.846Z,0
2018-12-15T01:03:59.870Z,0
2018-12-15T01:05:02.299Z,0
2018-12-15T01:06:04.591Z,0.1
2018-12-15T01:07:10.807Z,0.1
2018-12-15T01:08:13.403Z,0.1
2018-12-15T01:09:15.423Z,0.1
2018-12-15T01:10:17.460Z,0.1
2018-12-15T01:11:19.857Z,0.1
2018-12-15T01:12:21.884Z,0.1
2018-12-15T01:13:23.911Z,0.1
2018-12-15T01:14:26.218Z,0.1
2018-12-15T01:15:28.611Z,0.1
2018-12-15T01:16:30.626Z,0.1
2018-12-15T01:17:32.927Z,0.1
2018-12-15T01:18:34.951Z,0.1
2018-12-15T01:19:36.984Z,0.1
2018-12-15T01:20:39.002Z,0.1
2018-12-15T01:21:41.362Z,0.1
2018-12-15T01:22:43.408Z,0.1
2018-12-15T01:23:45.429Z,0.1
2018-12-15T01:24:47.458Z,0.1
2018-12-15T01:25:49.486Z,0.1
2018-12-15T01:26:51.500Z,0.1
2018-12-15T01:27:53.535Z,0.1
2018-12-15T01:28:55.560Z,0.1
2018-12-15T01:29:57.862Z,0.1
2018-12-15T01:30:59.872Z,0.1
2018-12-15T01:32:01.908Z,0.1
2018-12-15T01:33:04.210Z,0.1
2018-12-15T01:34:06.231Z,0.1
2018-12-15T01:35:08.266Z,0.1
2018-12-15T01:36:10.289Z,0.1
2018-12-15T01:37:12.597Z,0.1
2018-12-15T01:38:14.614Z,0.1
2018-12-15T01:39:16.661Z,0.1
2018-12-15T01:40:18.668Z,0.1
2018-12-15T01:41:20.692Z,0.1
2018-12-15T01:42:22.718Z,0.1
2018-12-15T01:43:24.730Z,0.1
2018-12-15T01:44:26.757Z,0.1
2018-12-15T01:45:29.087Z,0.1
2018-12-15T01:46:31.117Z,0.1
2018-12-15T01:47:33.170Z,0.1
2018-12-15T01:48:35.218Z,0.1
2018-12-15T01:49:37.237Z,0.1
2018-12-15T01:50:39.266Z,0.1
2018-12-15T01:51:41.315Z,0.1
2018-12-15T01:52:43.350Z,0.1
2018-12-15T01:53:45.370Z,0.1
2018-12-15T01:54:47.406Z,0.1
2018-12-15T01:55:49.453Z,0.1
2018-12-15T01:56:51.853Z,0.1
2018-12-15T01:57:53.877Z,0.1
2018-12-15T01:58:55.900Z,0.1
2018-12-15T01:59:57.986Z,0.1
2018-12-15T02:01:00.403Z,0.1
2018-12-15T02:02:02.726Z,0.1
2018-12-15T02:03:04.753Z,0.1
2018-12-15T02:04:06.760Z,0.1
2018-12-15T02:05:09.072Z,0.1
2018-12-15T02:06:11.097Z,0.1
2018-12-15T02:07:13.113Z,0.1
2018-12-15T02:08:15.147Z,0.1
2018-12-15T02:09:17.155Z,0.1
2018-12-15T02:10:19.184Z,0.1
2018-12-15T02:11:21.779Z,0
2018-12-15T02:12:23.825Z,0.1
2018-12-15T02:13:26.135Z,0.1
2018-12-15T02:14:28.161Z,0.1
2018-12-15T02:15:30.196Z,0.1
2018-12-15T02:16:32.204Z,0.1
2018-12-15T02:17:34.924Z,0.1
2018-12-15T02:18:36.945Z,0.1
2018-12-15T02:19:38.958Z,0.1
2018-12-15T02:20:40.975Z,0.1
2018-12-15T02:21:43.009Z,0.1
2018-12-15T02:22:45.027Z,0.1
2018-12-15T02:23:47.045Z,0.1
2018-12-15T02:24:49.062Z,0.1
2018-12-15T02:25:51.088Z,0.1
2018-12-15T02:26:53.106Z,0.1
2018-12-15T02:27:55.124Z,0.1
2018-12-15T02:28:57.161Z,0.1
2018-12-15T02:29:59.179Z,0.1
2018-12-15T02:31:01.203Z,0.1
2018-12-15T02:32:03.533Z,0.1
2018-12-15T02:33:05.543Z,0.1
2018-12-15T02:34:07.571Z,0.1
2018-12-15T02:35:09.603Z,0.1
2018-12-15T02:36:11.933Z,0.1
2018-12-15T02:37:13.942Z,0.1
2018-12-15T02:38:15.978Z,0.1
2018-12-15T02:39:17.998Z,0.1
2018-12-15T02:40:20.317Z,0.1
2018-12-15T02:41:22.639Z,0.1
2018-12-15T02:42:24.659Z,0.1
2018-12-15T02:43:26.680Z,0.1
2018-12-15T02:44:29.083Z,0.1
2018-12-15T02:45:31.120Z,0
2018-12-15T02:46:33.148Z,0.1
2018-12-15T02:47:42.952Z,0.1
2018-12-15T02:48:44.979Z,0.1
2018-12-15T02:49:47.285Z,0.1
2018-12-15T02:50:49.320Z,0.1
2018-12-15T02:51:51.342Z,0
2018-12-15T02:52:53.362Z,0.1
2018-12-15T02:53:55.665Z,0.1
2018-12-15T02:54:57.701Z,0.1
2018-12-15T02:55:59.798Z,0.1
2018-12-15T02:57:01.834Z,0.1
2018-12-15T02:58:04.227Z,0.1
2018-12-15T02:59:06.584Z,0.1
2018-12-15T03:00:08.611Z,0.1
2018-12-15T03:01:10.912Z,0.1
2018-12-15T03:02:12.952Z,0.1
2018-12-15T03:03:14.972Z,0
2018-12-15T03:04:17.010Z,0
2018-12-15T03:05:19.064Z,0
2018-12-15T03:06:21.082Z,0
2018-12-15T03:07:23.113Z,0
2018-12-15T03:08:25.237Z,0
2018-12-15T03:09:27.275Z,0
2018-12-15T03:10:29.568Z,0.1
2018-12-15T03:11:32.170Z,0
2018-12-15T03:12:34.191Z,0
2018-12-15T03:13:36.594Z,0
2018-12-15T03:14:38.628Z,0
2018-12-15T03:15:40.646Z,0
2018-12-15T03:16:42.950Z,0.1
2018-12-15T03:17:50.051Z,0.1
2018-12-15T03:18:52.410Z,0.1
2018-12-15T03:19:54.731Z,0
2018-12-15T03:20:57.047Z,0
2018-12-15T03:21:59.462Z,0
2018-12-15T03:23:01.546Z,0
2018-12-15T03:24:03.935Z,0
2018-12-15T03:25:06.255Z,0
2018-12-15T03:26:08.275Z,0
2018-12-15T03:27:10.293Z,0
2018-12-15T03:28:12.338Z,0
2018-12-15T03:29:14.931Z,0
2018-12-15T03:30:17.692Z,0
2018-12-15T03:31:20.008Z,0
2018-12-15T03:32:22.987Z,0
2018-12-15T03:33:25.033Z,0
2018-12-15T03:34:27.063Z,0
2018-12-15T03:35:29.351Z,0
2018-12-15T03:36:31.389Z,0
2018-12-15T03:37:34.263Z,0
2018-12-15T03:38:36.292Z,0
2018-12-15T03:39:38.360Z,0.1
2018-12-15T03:40:40.378Z,0
2018-12-15T03:41:42.788Z,0.1
2018-12-15T03:42:44.810Z,0.1
2018-12-15T03:43:46.863Z,0.1
2018-12-15T03:44:48.880Z,0.1
2018-12-15T03:45:51.196Z,0.1
2018-12-15T03:46:53.536Z,0.1
2018-12-15T03:47:57.456Z,0.1
2018-12-15T03:48:59.807Z,0
2018-12-15T03:50:02.164Z,0.1
2018-12-15T03:51:04.890Z,0
2018-12-15T03:52:06.895Z,0
2018-12-15T03:53:08.930Z,0
2018-12-15T03:54:10.951Z,0.1
2018-12-15T03:55:12.966Z,0.1
2018-12-15T03:56:15.403Z,0
2018-12-15T03:57:17.464Z,0.1
2018-12-15T03:58:20.080Z,0.1
2018-12-15T03:59:23.088Z,0
2018-12-15T04:00:25.116Z,0
2018-12-15T04:01:27.139Z,0
2018-12-15T04:02:29.167Z,0
2018-12-15T04:03:31.181Z,0
2018-12-15T04:04:33.608Z,0.1
2018-12-15T04:05:35.699Z,0.1
2018-12-15T04:06:37.745Z,0
2018-12-15T04:07:40.036Z,0
2018-12-15T04:08:42.375Z,0
2018-12-15T04:09:44.399Z,0
2018-12-15T04:10:46.702Z,0
2018-12-15T04:11:49.038Z,0.1
2018-12-15T04:12:51.057Z,0
2018-12-15T04:13:53.088Z,0.1
2018-12-15T04:14:55.419Z,0
2018-12-15T04:15:57.458Z,0
2018-12-15T04:16:59.485Z,0
2018-12-15T04:18:04.888Z,0.1
2018-12-15T04:19:07.201Z,0.1
2018-12-15T04:20:09.512Z,0
2018-12-15T04:21:11.957Z,0.1
2018-12-15T04:22:13.991Z,0.1
2018-12-15T04:23:16.058Z,0.1
2018-12-15T04:24:18.081Z,0.1
2018-12-15T04:25:20.085Z,0.1
2018-12-15T04:26:22.118Z,0
2018-12-15T04:27:24.135Z,0
2018-12-15T04:28:26.158Z,0
2018-12-15T04:29:28.756Z,0
2018-12-15T04:30:30.769Z,0
2018-12-15T04:31:32.799Z,0
2018-12-15T04:32:35.233Z,0
2018-12-15T04:33:37.265Z,0
2018-12-15T04:34:39.295Z,0
2018-12-15T04:35:41.314Z,0
2018-12-15T04:36:43.338Z,0
2018-12-15T04:37:45.368Z,0
2018-12-15T04:38:47.413Z,0
2018-12-15T04:39:49.817Z,0
2018-12-15T04:40:51.848Z,0
2018-12-15T04:41:54.496Z,0
2018-12-15T04:42:56.524Z,0
2018-12-15T04:43:58.824Z,0
2018-12-15T04:45:01.147Z,0
2018-12-15T04:46:03.548Z,0
2018-12-15T04:47:05.578Z,0
2018-12-15T04:48:12.494Z,0
2018-12-15T04:49:14.526Z,0
2018-12-15T04:50:17.204Z,0
2018-12-15T04:51:19.531Z,0
2018-12-15T04:52:21.654Z,0
2018-12-15T04:53:23.953Z,0
2018-12-15T04:54:25.973Z,0
2018-12-15T04:55:28.008Z,0
2018-12-15T04:56:30.474Z,0
2018-12-15T04:57:32.789Z,0
2018-12-15T04:58:34.806Z,0
2018-12-15T04:59:36.840Z,0
2018-12-15T05:00:38.857Z,0
2018-12-15T05:01:41.150Z,0
2018-12-15T05:02:45.175Z,0
2018-12-15T05:03:47.550Z,0
2018-12-15T05:04:49.647Z,0
2018-12-15T05:05:51.677Z,0
2018-12-15T05:06:53.704Z,0
2018-12-15T05:07:55.733Z,0
2018-12-15T05:08:58.142Z,-0.1
2018-12-15T05:10:00.493Z,0
2018-12-15T05:11:02.514Z,0
2018-12-15T05:12:04.547Z,0
2018-12-15T05:13:06.867Z,0
2018-12-15T05:14:09.650Z,0.1
2018-12-15T05:15:11.683Z,0.1
2018-12-15T05:16:13.700Z,0.1
2018-12-15T05:17:15.726Z,0.1
2018-12-15T05:18:20.114Z,0.1
2018-12-15T05:19:22.131Z,0.1
2018-12-15T05:20:24.202Z,0.1
2018-12-15T05:21:26.257Z,0
2018-12-15T05:22:28.287Z,0.1
2018-12-15T05:23:30.296Z,0.1
2018-12-15T05:24:32.325Z,0.1
2018-12-15T05:25:34.652Z,0.1
2018-12-15T05:26:36.670Z,0.1
2018-12-15T05:27:38.706Z,0.1
2018-12-15T05:28:40.717Z,0.1
2018-12-15T05:29:42.740Z,0.1
2018-12-15T05:30:44.768Z,0.1
2018-12-15T05:31:46.808Z,0.1
2018-12-15T05:32:49.213Z,0.2
2018-12-15T05:33:51.240Z,0.2
2018-12-15T05:34:53.259Z,0.1
2018-12-15T05:35:55.300Z,0.1
2018-12-15T05:36:58.267Z,0
2018-12-15T05:38:00.575Z,0
2018-12-15T05:39:02.623Z,0.1
2018-12-15T05:40:04.656Z,0.1
2018-12-15T05:41:07.048Z,0.1
2018-12-15T05:42:09.073Z,0.1
2018-12-15T05:43:11.092Z,0.1
2018-12-15T05:44:13.111Z,0.1
2018-12-15T05:45:15.193Z,0.1
2018-12-15T05:46:17.213Z,0
2018-12-15T05:47:19.616Z,0.1
2018-12-15T05:48:26.738Z,0.1
2018-12-15T05:49:28.754Z,0.1
2018-12-15T05:50:30.776Z,0.1
2018-12-15T05:51:32.800Z,0.1
2018-12-15T05:52:34.814Z,0
2018-12-15T05:53:36.842Z,0.1
2018-12-15T05:54:38.864Z,0
2018-12-15T05:55:40.895Z,0.1
2018-12-15T05:56:42.914Z,0
2018-12-15T05:57:44.949Z,0
2018-12-15T05:58:46.967Z,0.1
2018-12-15T05:59:48.996Z,0
2018-12-15T06:00:51.067Z,0
2018-12-15T06:01:53.081Z,0.1
2018-12-15T06:02:55.403Z,0
2018-12-15T06:03:57.420Z,0
2018-12-15T06:04:59.457Z,0
2018-12-15T06:06:01.470Z,0
2018-12-15T06:07:03.770Z,0
2018-12-15T06:08:05.798Z,0
2018-12-15T06:09:08.090Z,0
2018-12-15T06:10:10.122Z,0
2018-12-15T06:11:12.426Z,-0.1
2018-12-15T06:12:14.447Z,0
2018-12-15T06:13:16.468Z,0
2018-12-15T06:14:18.506Z,0
2018-12-15T06:15:20.536Z,-0.1
2018-12-15T06:16:22.562Z,-0.1
2018-12-15T06:17:24.589Z,0
2018-12-15T06:18:32.790Z,0
2018-12-15T06:19:34.812Z,0
2018-12-15T06:20:36.844Z,0
2018-12-15T06:21:38.847Z,-0.1
2018-12-15T06:22:40.877Z,-0.1
2018-12-15T06:23:42.905Z,-0.1
2018-12-15T06:24:44.934Z,-0.1
2018-12-15T06:25:46.974Z,-0.1
2018-12-15T06:26:48.989Z,-0.1
2018-12-15T06:27:51.007Z,-0.1
2018-12-15T06:28:53.966Z,0
2018-12-15T06:29:55.991Z,-0.1
2018-12-15T06:30:58.016Z,-0.1
2018-12-15T06:32:00.040Z,-0.1
2018-12-15T06:33:02.348Z,0
2018-12-15T06:34:04.363Z,0
2018-12-15T06:35:06.391Z,0
2018-12-15T06:36:08.409Z,0
2018-12-15T06:37:10.440Z,0
2018-12-15T06:38:12.441Z,-0.1
2018-12-15T06:39:14.471Z,-0.1
2018-12-15T06:40:16.495Z,0
2018-12-15T06:41:18.515Z,0
2018-12-15T06:42:20.825Z,-0.1
2018-12-15T06:43:22.883Z,0
2018-12-15T06:44:25.298Z,0
2018-12-15T06:45:27.320Z,0
2018-12-15T06:46:29.344Z,0
2018-12-15T06:47:31.355Z,0
2018-12-15T06:48:39.512Z,0
2018-12-15T06:49:41.540Z,0
2018-12-15T06:50:43.565Z,0
2018-12-15T06:51:45.576Z,0
2018-12-15T06:52:47.603Z,0
2018-12-15T06:53:49.631Z,0
2018-12-15T06:54:51.695Z,-0.1
2018-12-15T06:55:53.739Z,-0.1
2018-12-15T06:56:55.771Z,-0.1
2018-12-15T06:57:57.842Z,0
2018-12-15T06:58:59.900Z,0
2018-12-15T07:00:01.919Z,0
2018-12-15T07:01:04.226Z,0
2018-12-15T07:02:06.268Z,-0.1
2018-12-15T07:03:08.356Z,-0.1
2018-12-15T07:04:10.372Z,-0.1
2018-12-15T07:05:12.398Z,0
2018-12-15T07:06:14.452Z,-0.1
2018-12-15T07:07:16.463Z,-0.1
2018-12-15T07:08:18.499Z,0
2018-12-15T07:09:20.516Z,0
2018-12-15T07:10:22.608Z,0
2018-12-15T07:11:24.615Z,0
2018-12-15T07:12:26.641Z,0
2018-12-15T07:13:28.723Z,0
2018-12-15T07:14:30.737Z,0
2018-12-15T07:15:32.773Z,-0.1
2018-12-15T07:16:34.779Z,0
2018-12-15T07:17:38.392Z,0
2018-12-15T07:18:45.936Z,-0.1
2018-12-15T07:19:48.346Z,-0.1
2018-12-15T07:20:50.416Z,-0.1
2018-12-15T07:21:52.720Z,0
2018-12-15T07:22:54.738Z,0
2018-12-15T07:23:56.778Z,0
2018-12-15T07:24:58.889Z,0
2018-12-15T07:26:00.908Z,-0.1
2018-12-15T07:27:03.220Z,-0.1
2018-12-15T07:28:05.509Z,-0.1
2018-12-15T07:29:07.829Z,-0.1
2018-12-15T07:30:09.848Z,-0.1
2018-12-15T07:31:11.867Z,-0.1
2018-12-15T07:32:14.184Z,-0.1
2018-12-15T07:33:16.202Z,-0.1
2018-12-15T07:34:18.510Z,-0.1
2018-12-15T07:35:20.527Z,-0.1
2018-12-15T07:36:22.563Z,-0.1
2018-12-15T07:37:24.576Z,-0.1
2018-12-15T07:38:26.608Z,-0.1
2018-12-15T07:39:29.631Z,-0.1
2018-12-15T07:40:31.648Z,-0.1
2018-12-15T07:41:33.681Z,-0.1
2018-12-15T07:42:36.096Z,-0.1
2018-12-15T07:43:38.122Z,-0.1
2018-12-15T07:44:40.129Z,0
2018-12-15T07:45:42.441Z,0
2018-12-15T07:46:44.543Z,0
2018-12-15T07:47:46.560Z,0
2018-12-15T07:48:52.600Z,0
2018-12-15T07:49:54.891Z,-0.1
2018-12-15T07:50:57.238Z,0
2018-12-15T07:51:59.321Z,0
2018-12-15T07:53:01.349Z,0
2018-12-15T07:54:03.362Z,0
2018-12-15T07:55:05.378Z,-0.1
2018-12-15T07:56:07.395Z,-0.1
2018-12-15T07:57:09.408Z,0
2018-12-15T07:58:11.440Z,0
2018-12-15T07:59:13.456Z,-0.1
2018-12-15T08:00:15.473Z,-0.1
2018-12-15T08:01:17.521Z,-0.1
2018-12-15T08:02:19.550Z,-0.1
2018-12-15T08:03:21.856Z,-0.1
2018-12-15T08:04:23.873Z,-0.1
2018-12-15T08:05:25.907Z,-0.1
2018-12-15T08:06:28.319Z,-0.1
2018-12-15T08:07:30.334Z,-0.1
2018-12-15T08:08:32.357Z,-0.1
2018-12-15T08:09:34.403Z,-0.1
2018-12-15T08:10:36.411Z,0
2018-12-15T08:11:38.717Z,0.2
2018-12-15T08:12:40.738Z,0.1
2018-12-15T08:13:42.755Z,0.1
2018-12-15T08:14:45.082Z,0.1
2018-12-15T08:15:47.122Z,0.1
2018-12-15T08:16:49.155Z,0.3
2018-12-15T08:17:51.722Z,0.2
2018-12-15T08:18:59.120Z,0.3
2018-12-15T08:20:01.142Z,0.3
2018-12-15T08:21:03.159Z,0.2
2018-12-15T08:22:05.203Z,0.2
2018-12-15T08:23:07.216Z,0.3
2018-12-15T08:24:09.247Z,0.2
2018-12-15T08:25:11.296Z,0.2
2018-12-15T08:26:13.319Z,0.2
2018-12-15T08:27:15.340Z,0.2
2018-12-15T08:28:17.358Z,0.1
2018-12-15T08:29:19.380Z,0.2
2018-12-15T08:30:21.403Z,0.1
2018-12-15T08:31:23.437Z,0.1
2018-12-15T08:32:25.775Z,0.1
2018-12-15T08:33:27.787Z,0.1
2018-12-15T08:34:29.840Z,0.1
2018-12-15T08:35:31.863Z,0.1
2018-12-15T08:36:33.885Z,0.1
2018-12-15T08:37:36.188Z,0.1
2018-12-15T08:38:38.196Z,0.1
2018-12-15T08:39:40.284Z,0
2018-12-15T08:40:43.879Z,0.1
2018-12-15T08:41:45.922Z,0.1
2018-12-15T08:42:47.929Z,0.1
2018-12-15T08:43:50.341Z,0.1
2018-12-15T08:44:52.354Z,0.1
2018-12-15T08:45:54.377Z,0.2
2018-12-15T08:46:56.412Z,0.2
2018-12-15T08:47:58.809Z,0.2
2018-12-15T08:49:05.755Z,0.2
2018-12-15T08:50:08.164Z,0.1
2018-12-15T08:51:10.209Z,0.2
2018-12-15T08:52:12.227Z,0.2
2018-12-15T08:53:14.253Z,0.2
2018-12-15T08:54:16.359Z,0.2
2018-12-15T08:55:18.417Z,0.2
2018-12-15T08:56:20.731Z,0.2
2018-12-15T08:57:22.754Z,0.1
2018-12-15T08:58:24.770Z,0.2
2018-12-15T08:59:26.791Z,0.2
2018-12-15T09:00:28.823Z,0.1
2018-12-15T09:01:31.125Z,0.2
2018-12-15T09:02:33.150Z,0.2
2018-12-15T09:03:35.172Z,0.2
2018-12-15T09:04:37.191Z,0.2
2018-12-15T09:05:39.210Z,0.2
2018-12-15T09:06:41.303Z,0.2
2018-12-15T09:07:43.308Z,0.2
2018-12-15T09:08:45.610Z,0.3
2018-12-15T09:09:47.917Z,0.3
2018-12-15T09:10:49.936Z,0.3
2018-12-15T09:11:51.973Z,0.3
2018-12-15T09:12:53.990Z,0.3
2018-12-15T09:13:56.008Z,0.4
2018-12-15T09:14:58.300Z,0.4
2018-12-15T09:16:00.339Z,0.5
2018-12-15T09:17:02.639Z,0.5
2018-12-15T09:18:04.667Z,0.5
2018-12-15T09:19:12.756Z,0.5
2018-12-15T09:20:14.784Z,0.5
2018-12-15T09:21:16.804Z,0.5
2018-12-15T09:22:18.832Z,0.6
2018-12-15T09:23:20.869Z,0.7
2018-12-15T09:24:35.652Z,0.6
2018-12-15T09:25:37.677Z,0.9
2018-12-15T09:26:39.701Z,1
2018-12-15T09:27:41.729Z,1
2018-12-15T09:28:43.736Z,1.1
2018-12-15T09:29:46.160Z,1.3
2018-12-15T09:30:48.191Z,1.2
2018-12-15T09:31:50.489Z,1.5
2018-12-15T09:32:52.507Z,1.5
2018-12-15T09:33:54.579Z,1.6
2018-12-15T09:34:56.603Z,1.6
2018-12-15T09:35:58.627Z,1.7
2018-12-15T09:37:00.662Z,1.3
2018-12-15T09:38:02.687Z,1.4
2018-12-15T09:39:04.719Z,1.7
2018-12-15T09:40:06.748Z,1.9
2018-12-15T09:41:08.754Z,1.9
2018-12-15T09:42:10.788Z,1.9
2018-12-15T09:43:12.864Z,2.1
2018-12-15T09:44:14.885Z,2
2018-12-15T09:45:16.928Z,1.9
2018-12-15T09:46:18.955Z,2
2018-12-15T09:47:20.983Z,1.8
2018-12-15T09:48:23.000Z,1.9
2018-12-15T09:49:25.044Z,2.1
2018-12-15T09:50:27.073Z,2.4
2018-12-15T09:51:29.106Z,1.9
2018-12-15T09:52:31.131Z,1.8
2018-12-15T09:53:33.210Z,2.1
2018-12-15T09:54:35.244Z,2.1
2018-12-15T09:55:37.270Z,2.3
2018-12-15T09:56:39.318Z,2.5
2018-12-15T09:57:41.331Z,2.6
2018-12-15T09:58:43.364Z,2.4
2018-12-15T09:59:45.401Z,2.4
2018-12-15T10:00:47.713Z,2.5
2018-12-15T10:01:50.022Z,2.3
2018-12-15T10:02:52.060Z,2.7
2018-12-15T10:03:55.281Z,2.2
2018-12-15T10:04:58.276Z,2.2
2018-12-15T10:06:00.326Z,2.5
2018-12-15T10:07:02.369Z,2.6
2018-12-15T10:08:04.399Z,2.8
2018-12-15T10:09:06.441Z,3
2018-12-15T10:10:08.861Z,2.7
2018-12-15T10:11:12.634Z,2.3
2018-12-15T10:12:17.774Z,2.2
2018-12-15T10:13:21.800Z,2
2018-12-15T10:14:24.094Z,1.6
2018-12-15T10:15:26.213Z,1.2
2018-12-15T10:16:28.252Z,1.7
2018-12-15T10:17:30.575Z,2
2018-12-15T10:18:32.896Z,2.1
2018-12-15T10:19:39.782Z,1.8
2018-12-15T10:20:42.805Z,1.8
2018-12-15T10:21:44.831Z,1.7
2018-12-15T10:22:46.869Z,1.5
2018-12-15T10:23:48.896Z,1.3
2018-12-15T10:24:54.873Z,1.3
2018-12-15T10:26:02.001Z,1.5
2018-12-15T10:27:08.951Z,1.4
2018-12-15T10:28:18.537Z,1.3
2018-12-15T10:29:26.236Z,1.1
2018-12-15T10:30:32.022Z,0.7
2018-12-15T10:31:40.156Z,0.9
2018-12-15T10:32:47.007Z,1
2018-12-15T10:33:52.448Z,1.1
2018-12-15T10:34:54.824Z,1.1
2018-12-15T10:35:56.861Z,1.1
2018-12-15T10:36:58.881Z,1
2018-12-15T10:38:01.190Z,1.1
2018-12-15T10:39:03.209Z,1
2018-12-15T10:40:05.899Z,1
2018-12-15T10:41:07.937Z,0.9
2018-12-15T10:42:09.977Z,0.9
2018-12-15T10:43:12.013Z,0.8
2018-12-15T10:44:14.050Z,0.8
2018-12-15T10:45:16.062Z,0.7
2018-12-15T10:46:18.095Z,0.8
2018-12-15T10:47:20.153Z,0.8
2018-12-15T10:48:24.306Z,0.8
2018-12-15T10:49:31.814Z,0.6
2018-12-15T10:50:33.906Z,0.6
2018-12-15T10:51:36.023Z,0.7
2018-12-15T10:52:38.117Z,0.7
2018-12-15T10:53:40.479Z,0.7
2018-12-15T10:54:42.510Z,0.8
2018-12-15T10:55:44.525Z,0.8
2018-12-15T10:56:46.574Z,0.7
2018-12-15T10:57:48.975Z,0.8
2018-12-15T10:58:51.004Z,0.8
2018-12-15T10:59:53.156Z,0.8
2018-12-15T11:00:55.172Z,0.8
2018-12-15T11:01:57.220Z,0.8
2018-12-15T11:02:59.259Z,0.8
2018-12-15T11:04:01.995Z,0.8
2018-12-15T11:05:04.866Z,0.8
2018-12-15T11:06:06.897Z,0.8
2018-12-15T11:07:16.137Z,0.9
2018-12-15T11:08:20.230Z,0.8
2018-12-15T11:09:22.270Z,0.6
2018-12-15T11:10:26.782Z,0.7
2018-12-15T11:11:36.011Z,0.7
2018-12-15T11:12:43.493Z,0.7
2018-12-15T11:13:47.405Z,0.6
2018-12-15T11:14:55.060Z,0.7
2018-12-15T11:15:57.952Z,0.7
2018-12-15T11:17:01.033Z,0.7
2018-12-15T11:18:03.788Z,0.7
2018-12-15T11:19:10.808Z,0.7
2018-12-15T11:20:14.840Z,0.6
2018-12-15T11:21:17.172Z,0.5
2018-12-15T11:22:20.163Z,0.5
2018-12-15T11:23:22.224Z,0.6
2018-12-15T11:24:24.251Z,0.6
2018-12-15T11:25:26.287Z,0.6
2018-12-15T11:26:28.368Z,0.6
2018-12-15T11:27:30.675Z,0.6
2018-12-15T11:28:32.702Z,0.6
2018-12-15T11:29:35.019Z,0.5
2018-12-15T11:30:37.024Z,0.5
2018-12-15T11:31:39.061Z,0.5
2018-12-15T11:32:41.078Z,0.7
2018-12-15T11:33:43.102Z,0.7
2018-12-15T11:34:45.195Z,0.7
2018-12-15T11:35:47.223Z,0.6
2018-12-15T11:36:49.245Z,0.5
2018-12-15T11:37:51.261Z,0.5
2018-12-15T11:38:53.304Z,0.5
2018-12-15T11:39:56.301Z,0.4
2018-12-15T11:40:58.324Z,0.5
2018-12-15T11:42:00.419Z,0.5
2018-12-15T11:43:02.438Z,0.6
2018-12-15T11:44:04.755Z,0.6
2018-12-15T11:45:06.776Z,0.4
2018-12-15T11:46:08.790Z,0.5
2018-12-15T11:47:10.815Z,0.4
2018-12-15T11:48:14.430Z,0.5
2018-12-15T11:49:16.458Z,0.5
2018-12-15T11:50:18.511Z,0.5
2018-12-15T11:51:20.813Z,0.4
2018-12-15T11:52:23.117Z,0.4
2018-12-15T11:53:25.139Z,0.4
2018-12-15T11:54:27.540Z,0.4
2018-12-15T11:55:29.576Z,0.4
2018-12-15T11:56:31.586Z,0.5
2018-12-15T11:57:33.605Z,0.5
2018-12-15T11:58:35.636Z,0.5
2018-12-15T11:59:37.651Z,0.5
2018-12-15T12:00:40.064Z,0.5
2018-12-15T12:01:42.085Z,0.5
2018-12-15T12:02:44.120Z,0.4
2018-12-15T12:03:46.126Z,0.5
2018-12-15T12:04:48.164Z,0.5
2018-12-15T12:05:50.238Z,0.5
2018-12-15T12:06:52.645Z,0.5
2018-12-15T12:07:54.680Z,0.5
2018-12-15T12:08:56.741Z,0.5
2018-12-15T12:09:58.764Z,0.5
2018-12-15T12:11:00.776Z,0.5
2018-12-15T12:12:02.815Z,0.5
2018-12-15T12:13:04.889Z,0.5
2018-12-15T12:14:06.929Z,0.5
2018-12-15T12:15:08.966Z,0.6
2018-12-15T12:16:10.979Z,0.5
2018-12-15T12:17:13.008Z,0.6
2018-12-15T12:18:15.024Z,0.5
2018-12-15T12:19:17.036Z,0.6
2018-12-15T12:20:19.114Z,0.6
2018-12-15T12:21:21.146Z,0.6
2018-12-15T12:22:23.169Z,0.6
2018-12-15T12:23:25.198Z,0.6
2018-12-15T12:24:27.225Z,0.7
2018-12-15T12:25:29.237Z,0.7
2018-12-15T12:26:31.263Z,0.7
2018-12-15T12:27:33.294Z,0.7
2018-12-15T12:28:35.691Z,0.7
2018-12-15T12:29:37.719Z,0.7
2018-12-15T12:30:39.741Z,0.5
2018-12-15T12:31:41.766Z,0.6
2018-12-15T12:32:43.850Z,0.6
2018-12-15T12:33:45.885Z,0.6
2018-12-15T12:34:47.915Z,0.6
2018-12-15T12:35:49.945Z,0.6
2018-12-15T12:36:52.340Z,0.6
2018-12-15T12:37:54.664Z,0.7
2018-12-15T12:38:56.684Z,0.6
2018-12-15T12:39:58.733Z,0.6
2018-12-15T12:41:00.764Z,0.6
2018-12-15T12:42:02.777Z,0.6
2018-12-15T12:43:04.831Z,0.6
2018-12-15T12:44:06.848Z,0.6
2018-12-15T12:45:08.895Z,0.6
2018-12-15T12:46:10.914Z,0.6
2018-12-15T12:47:13.231Z,0.5
2018-12-15T12:48:15.541Z,0.6
2018-12-15T12:49:17.553Z,0.6
2018-12-15T12:50:19.592Z,0.6
2018-12-15T12:51:22.001Z,0.6
2018-12-15T12:52:24.022Z,0.5
2018-12-15T12:53:26.042Z,0.6
2018-12-15T12:54:28.071Z,0.6
2018-12-15T12:55:30.098Z,0.6
2018-12-15T12:56:32.125Z,0.5
2018-12-15T12:57:34.154Z,0.5
2018-12-15T12:58:36.167Z,0.5
2018-12-15T12:59:38.203Z,0.5
2018-12-15T13:00:40.238Z,0.5
2018-12-15T13:01:42.254Z,0.5
2018-12-15T13:02:44.307Z,0.6
2018-12-15T13:03:46.331Z,0.6
2018-12-15T13:04:48.700Z,0.6
2018-12-15T13:05:50.729Z,0.6
2018-12-15T13:06:52.751Z,0.6
2018-12-15T13:07:54.772Z,0.6
2018-12-15T13:08:56.790Z,0.7
2018-12-15T13:09:58.806Z,0.6
2018-12-15T13:11:01.125Z,0.6
2018-12-15T13:12:03.815Z,0.6
2018-12-15T13:13:05.845Z,0.6
2018-12-15T13:14:07.874Z,0.6
2018-12-15T13:15:09.887Z,0.6
2018-12-15T13:16:11.916Z,0.6
2018-12-15T13:17:13.938Z,0.6
2018-12-15T13:18:15.972Z,0.5
2018-12-15T13:19:18.270Z,0.6
2018-12-15T13:20:20.291Z,0.6
2018-12-15T13:21:22.319Z,0.7
2018-12-15T13:22:24.329Z,0.7
2018-12-15T13:23:26.360Z,0.7
2018-12-15T13:24:28.380Z,0.7
2018-12-15T13:25:30.401Z,0.6
2018-12-15T13:26:32.420Z,0.6
2018-12-15T13:27:34.736Z,0.6
2018-12-15T13:28:36.765Z,0.7
2018-12-15T13:29:38.785Z,0.7
2018-12-15T13:30:41.200Z,0.7
2018-12-15T13:31:43.499Z,0.7
2018-12-15T13:32:45.530Z,0.6
2018-12-15T13:33:47.563Z,0.6
2018-12-15T13:34:49.568Z,0.6
2018-12-15T13:35:51.597Z,0.6
2018-12-15T13:36:53.638Z,0.6
2018-12-15T13:37:55.655Z,0.6
2018-12-15T13:38:57.683Z,0.6
2018-12-15T13:39:59.703Z,0.6
2018-12-15T13:41:01.726Z,0.6
2018-12-15T13:42:03.739Z,0.6
2018-12-15T13:43:05.784Z,0.6
2018-12-15T13:44:07.798Z,0.6
2018-12-15T13:45:09.820Z,0.6
2018-12-15T13:46:11.892Z,0.6
2018-12-15T13:47:14.480Z,0.6
2018-12-15T13:48:16.518Z,0.7
2018-12-15T13:49:18.844Z,0.7
2018-12-15T13:50:21.158Z,0.7
2018-12-15T13:51:23.163Z,0.6
2018-12-15T13:52:25.201Z,0.7
2018-12-15T13:53:29.047Z,0.6
2018-12-15T13:54:31.074Z,0.7
2018-12-15T13:55:33.115Z,0.6
2018-12-15T13:56:35.127Z,0.7
2018-12-15T13:57:37.155Z,0.6
2018-12-15T13:58:39.185Z,0.7
2018-12-15T13:59:41.270Z,0.6
2018-12-15T14:00:43.283Z,0.6
2018-12-15T14:01:45.306Z,0.6
2018-12-15T14:02:47.337Z,0.6
2018-12-15T14:03:49.642Z,0.6
2018-12-15T14:04:51.673Z,0.6
2018-12-15T14:05:53.693Z,0.6
2018-12-15T14:06:55.704Z,0.6
2018-12-15T14:07:57.740Z,0.6
2018-12-15T14:08:59.760Z,0.5
2018-12-15T14:10:02.079Z,0.6
2018-12-15T14:11:04.389Z,0.6
2018-12-15T14:12:06.691Z,0.6
2018-12-15T14:13:08.725Z,0.6
2018-12-15T14:14:10.754Z,0.6
2018-12-15T14:15:12.784Z,0.5
2018-12-15T14:16:14.788Z,0.5
2018-12-15T14:17:17.210Z,0.6
2018-12-15T14:18:19.231Z,0.6
2018-12-15T14:19:21.538Z,0.5
2018-12-15T14:20:23.570Z,0.5
2018-12-15T14:21:25.593Z,0.6
2018-12-15T14:22:27.630Z,0.6
2018-12-15T14:23:29.646Z,0.6
2018-12-15T14:24:33.201Z,0.6
2018-12-15T14:25:35.221Z,0.5
2018-12-15T14:26:37.246Z,0.5
2018-12-15T14:27:39.270Z,0.5
2018-12-15T14:28:41.310Z,0.5
2018-12-15T14:29:43.618Z,0.5
2018-12-15T14:30:45.925Z,0.5